sensor_id;sensor_type;location;lat;lon;timestamp;P1;durP1;ratioP1;P2;durP2;ratioP2
21352;SDS011;10834;52.268;6.770;2022-09-09T00:00:33;0.82;;;0.50;;
21352;SDS011;10834;52.268;6.770;2022-09-09T00:03:24;1.00;;;0.55;;
21352;SDS011;10834;52.268;6.770;2022-09-09T00:06:23;0.30;;;0.30;;
21352;SDS011;10834;52.268;6.770;2022-09-09T00:09:21;0.60;;;0.60;;
21352;SDS011;10834;52.268;6.770;2022-09-09T00:12:15;0.68;;;0.50;;
21352;SDS011;10834;52.268;6.770;2022-09-09T00:15:04;1.33;;;0.70;;
21352;SDS011;10834;52.268;6.770;2022-09-09T00:20:59;1.38;;;0.55;;
21352;SDS011;10834;52.268;6.770;2022-09-09T00:23:53;1.00;;;0.65;;
21352;SDS011;10834;52.268;6.770;2022-09-09T00:29:45;0.47;;;0.40;;
21352;SDS011;10834;52.268;6.770;2022-09-09T00:32:39;0.90;;;0.60;;
21352;SDS011;10834;52.268;6.770;2022-09-09T00:35:47;1.33;;;0.50;;
21352;SDS011;10834;52.268;6.770;2022-09-09T00:38:38;0.93;;;0.60;;
21352;SDS011;10834;52.268;6.770;2022-09-09T00:44:53;0.63;;;0.50;;
21352;SDS011;10834;52.268;6.770;2022-09-09T00:47:49;1.92;;;0.60;;
21352;SDS011;10834;52.268;6.770;2022-09-09T00:51:21;0.55;;;0.52;;
21352;SDS011;10834;52.268;6.770;2022-09-09T00:54:10;0.75;;;0.45;;
21352;SDS011;10834;52.268;6.770;2022-09-09T00:57:28;1.67;;;0.65;;
21352;SDS011;10834;52.268;6.770;2022-09-09T01:00:33;0.40;;;0.40;;
21352;SDS011;10834;52.268;6.770;2022-09-09T01:06:40;0.93;;;0.63;;
21352;SDS011;10834;52.268;6.770;2022-09-09T01:12:24;0.63;;;0.40;;
21352;SDS011;10834;52.268;6.770;2022-09-09T01:15:17;0.57;;;0.50;;
21352;SDS011;10834;52.268;6.770;2022-09-09T01:18:13;1.23;;;0.57;;
21352;SDS011;10834;52.268;6.770;2022-09-09T01:24:48;0.70;;;0.47;;
21352;SDS011;10834;52.268;6.770;2022-09-09T01:27:56;0.63;;;0.43;;
21352;SDS011;10834;52.268;6.770;2022-09-09T01:30:45;0.85;;;0.40;;
21352;SDS011;10834;52.268;6.770;2022-09-09T01:33:31;0.82;;;0.50;;
21352;SDS011;10834;52.268;6.770;2022-09-09T01:39:10;1.30;;;0.50;;
21352;SDS011;10834;52.268;6.770;2022-09-09T01:41:57;0.43;;;0.40;;
21352;SDS011;10834;52.268;6.770;2022-09-09T01:44:44;2.25;;;0.30;;
21352;SDS011;10834;52.268;6.770;2022-09-09T01:47:30;0.52;;;0.50;;
21352;SDS011;10834;52.268;6.770;2022-09-09T01:50:16;0.52;;;0.40;;
21352;SDS011;10834;52.268;6.770;2022-09-09T01:53:02;1.48;;;0.40;;
21352;SDS011;10834;52.268;6.770;2022-09-09T01:55:53;2.05;;;0.65;;
21352;SDS011;10834;52.268;6.770;2022-09-09T01:58:57;0.38;;;0.38;;
21352;SDS011;10834;52.268;6.770;2022-09-09T02:04:59;0.63;;;0.30;;
21352;SDS011;10834;52.268;6.770;2022-09-09T02:08:09;1.10;;;0.50;;
21352;SDS011;10834;52.268;6.770;2022-09-09T02:11:06;1.13;;;0.50;;
21352;SDS011;10834;52.268;6.770;2022-09-09T02:14:03;0.68;;;0.40;;
21352;SDS011;10834;52.268;6.770;2022-09-09T02:16:57;0.40;;;0.40;;
21352;SDS011;10834;52.268;6.770;2022-09-09T02:19:56;0.95;;;0.60;;
21352;SDS011;10834;52.268;6.770;2022-09-09T02:22:49;0.63;;;0.30;;
21352;SDS011;10834;52.268;6.770;2022-09-09T02:25:36;0.30;;;0.30;;
21352;SDS011;10834;52.268;6.770;2022-09-09T02:28:22;0.40;;;0.40;;
21352;SDS011;10834;52.268;6.770;2022-09-09T02:31:11;0.47;;;0.47;;
21352;SDS011;10834;52.268;6.770;2022-09-09T02:34:00;0.50;;;0.35;;
21352;SDS011;10834;52.268;6.770;2022-09-09T02:36:49;0.40;;;0.30;;
21352;SDS011;10834;52.268;6.770;2022-09-09T02:39:38;0.50;;;0.40;;
21352;SDS011;10834;52.268;6.770;2022-09-09T02:42:23;0.35;;;0.35;;
21352;SDS011;10834;52.268;6.770;2022-09-09T02:45:10;1.17;;;0.55;;
21352;SDS011;10834;52.268;6.770;2022-09-09T03:00:05;0.40;;;0.40;;
21352;SDS011;10834;52.268;6.770;2022-09-09T03:02:52;0.32;;;0.32;;
21352;SDS011;10834;52.268;6.770;2022-09-09T03:05:39;1.08;;;0.40;;
21352;SDS011;10834;52.268;6.770;2022-09-09T03:08:26;0.40;;;0.40;;
21352;SDS011;10834;52.268;6.770;2022-09-09T03:11:12;0.50;;;0.40;;
21352;SDS011;10834;52.268;6.770;2022-09-09T03:13:59;0.40;;;0.40;;
21352;SDS011;10834;52.268;6.770;2022-09-09T03:16:45;0.40;;;0.40;;
21352;SDS011;10834;52.268;6.770;2022-09-09T03:19:31;0.68;;;0.40;;
21352;SDS011;10834;52.268;6.770;2022-09-09T03:22:17;0.35;;;0.35;;
21352;SDS011;10834;52.268;6.770;2022-09-09T03:25:03;0.55;;;0.28;;
21352;SDS011;10834;52.268;6.770;2022-09-09T03:27:51;0.40;;;0.40;;
21352;SDS011;10834;52.268;6.770;2022-09-09T03:30:39;0.93;;;0.30;;
21352;SDS011;10834;52.268;6.770;2022-09-09T03:33:25;0.60;;;0.40;;
21352;SDS011;10834;52.268;6.770;2022-09-09T03:36:11;0.68;;;0.40;;
21352;SDS011;10834;52.268;6.770;2022-09-09T03:38:57;0.30;;;0.30;;
21352;SDS011;10834;52.268;6.770;2022-09-09T03:41:44;0.30;;;0.30;;
21352;SDS011;10834;52.268;6.770;2022-09-09T03:44:31;0.60;;;0.40;;
21352;SDS011;10834;52.268;6.770;2022-09-09T03:47:18;0.52;;;0.30;;
21352;SDS011;10834;52.268;6.770;2022-09-09T03:50:05;0.20;;;0.20;;
21352;SDS011;10834;52.268;6.770;2022-09-09T03:52:54;0.22;;;0.22;;
21352;SDS011;10834;52.268;6.770;2022-09-09T03:55:47;0.45;;;0.35;;
21352;SDS011;10834;52.268;6.770;2022-09-09T03:58:35;0.30;;;0.30;;
21352;SDS011;10834;52.268;6.770;2022-09-09T04:01:22;0.40;;;0.40;;
21352;SDS011;10834;52.268;6.770;2022-09-09T04:04:08;0.40;;;0.40;;
21352;SDS011;10834;52.268;6.770;2022-09-09T04:06:55;0.32;;;0.32;;
21352;SDS011;10834;52.268;6.770;2022-09-09T04:09:41;0.35;;;0.35;;
21352;SDS011;10834;52.268;6.770;2022-09-09T04:12:26;1.08;;;0.50;;
21352;SDS011;10834;52.268;6.770;2022-09-09T04:15:13;1.67;;;0.47;;
21352;SDS011;10834;52.268;6.770;2022-09-09T04:17:59;0.30;;;0.30;;
21352;SDS011;10834;52.268;6.770;2022-09-09T04:20:49;0.47;;;0.30;;
21352;SDS011;10834;52.268;6.770;2022-09-09T04:23:36;0.45;;;0.30;;
21352;SDS011;10834;52.268;6.770;2022-09-09T04:26:22;0.50;;;0.50;;
21352;SDS011;10834;52.268;6.770;2022-09-09T04:29:08;1.02;;;0.38;;
21352;SDS011;10834;52.268;6.770;2022-09-09T04:31:54;0.25;;;0.25;;
21352;SDS011;10834;52.268;6.770;2022-09-09T04:34:40;0.30;;;0.30;;
21352;SDS011;10834;52.268;6.770;2022-09-09T04:37:26;0.60;;;0.40;;
21352;SDS011;10834;52.268;6.770;2022-09-09T04:40:12;0.40;;;0.30;;
21352;SDS011;10834;52.268;6.770;2022-09-09T04:43:00;0.55;;;0.40;;
21352;SDS011;10834;52.268;6.770;2022-09-09T04:45:49;0.45;;;0.30;;
21352;SDS011;10834;52.268;6.770;2022-09-09T04:48:38;0.63;;;0.30;;
21352;SDS011;10834;52.268;6.770;2022-09-09T04:51:25;0.30;;;0.30;;
21352;SDS011;10834;52.268;6.770;2022-09-09T04:54:12;0.30;;;0.30;;
21352;SDS011;10834;52.268;6.770;2022-09-09T04:56:58;0.73;;;0.52;;
21352;SDS011;10834;52.268;6.770;2022-09-09T04:59:44;0.30;;;0.30;;
21352;SDS011;10834;52.268;6.770;2022-09-09T05:02:31;0.38;;;0.38;;
21352;SDS011;10834;52.268;6.770;2022-09-09T05:05:17;0.68;;;0.43;;
21352;SDS011;10834;52.268;6.770;2022-09-09T05:08:04;0.85;;;0.50;;
21352;SDS011;10834;52.268;6.770;2022-09-09T05:10:52;0.40;;;0.40;;
21352;SDS011;10834;52.268;6.770;2022-09-09T05:13:38;0.88;;;0.50;;
21352;SDS011;10834;52.268;6.770;2022-09-09T05:16:24;0.28;;;0.28;;
21352;SDS011;10834;52.268;6.770;2022-09-09T05:19:10;0.65;;;0.30;;
21352;SDS011;10834;52.268;6.770;2022-09-09T05:21:57;0.90;;;0.40;;
21352;SDS011;10834;52.268;6.770;2022-09-09T05:24:43;0.55;;;0.50;;
21352;SDS011;10834;52.268;6.770;2022-09-09T05:27:29;0.70;;;0.30;;
21352;SDS011;10834;52.268;6.770;2022-09-09T05:30:19;0.35;;;0.35;;
21352;SDS011;10834;52.268;6.770;2022-09-09T05:33:05;0.30;;;0.30;;
21352;SDS011;10834;52.268;6.770;2022-09-09T05:35:58;0.32;;;0.30;;
21352;SDS011;10834;52.268;6.770;2022-09-09T05:38:47;0.40;;;0.40;;
21352;SDS011;10834;52.268;6.770;2022-09-09T05:41:34;0.68;;;0.30;;
21352;SDS011;10834;52.268;6.770;2022-09-09T05:44:21;0.43;;;0.40;;
21352;SDS011;10834;52.268;6.770;2022-09-09T05:47:09;0.20;;;0.20;;
21352;SDS011;10834;52.268;6.770;2022-09-09T05:49:55;1.08;;;0.50;;
21352;SDS011;10834;52.268;6.770;2022-09-09T05:52:41;1.42;;;0.47;;
21352;SDS011;10834;52.268;6.770;2022-09-09T05:55:27;0.40;;;0.40;;
21352;SDS011;10834;52.268;6.770;2022-09-09T05:58:13;0.70;;;0.40;;
21352;SDS011;10834;52.268;6.770;2022-09-09T06:01:01;2.83;;;0.40;;
21352;SDS011;10834;52.268;6.770;2022-09-09T06:03:55;0.30;;;0.30;;
21352;SDS011;10834;52.268;6.770;2022-09-09T06:06:41;0.65;;;0.47;;
21352;SDS011;10834;52.268;6.770;2022-09-09T06:09:28;0.32;;;0.32;;
21352;SDS011;10834;52.268;6.770;2022-09-09T06:12:15;0.70;;;0.40;;
21352;SDS011;10834;52.268;6.770;2022-09-09T06:15:01;0.30;;;0.30;;
21352;SDS011;10834;52.268;6.770;2022-09-09T06:17:53;0.43;;;0.43;;
21352;SDS011;10834;52.268;6.770;2022-09-09T06:20:40;1.25;;;0.50;;
21352;SDS011;10834;52.268;6.770;2022-09-09T06:23:27;0.57;;;0.40;;
21352;SDS011;10834;52.268;6.770;2022-09-09T06:26:14;0.30;;;0.30;;
21352;SDS011;10834;52.268;6.770;2022-09-09T06:29:05;1.10;;;0.47;;
21352;SDS011;10834;52.268;6.770;2022-09-09T06:31:52;1.30;;;0.60;;
21352;SDS011;10834;52.268;6.770;2022-09-09T06:34:38;0.98;;;0.98;;
21352;SDS011;10834;52.268;6.770;2022-09-09T06:37:25;1.02;;;0.50;;
21352;SDS011;10834;52.268;6.770;2022-09-09T06:40:12;0.68;;;0.40;;
21352;SDS011;10834;52.268;6.770;2022-09-09T06:43:01;0.57;;;0.47;;
21352;SDS011;10834;52.268;6.770;2022-09-09T06:45:57;0.70;;;0.40;;
21352;SDS011;10834;52.268;6.770;2022-09-09T06:48:45;1.48;;;0.40;;
21352;SDS011;10834;52.268;6.770;2022-09-09T06:51:33;1.05;;;0.50;;
21352;SDS011;10834;52.268;6.770;2022-09-09T06:54:21;1.25;;;0.40;;
21352;SDS011;10834;52.268;6.770;2022-09-09T06:57:09;0.70;;;0.57;;
21352;SDS011;10834;52.268;6.770;2022-09-09T06:59:55;0.50;;;0.40;;
21352;SDS011;10834;52.268;6.770;2022-09-09T07:02:41;0.93;;;0.40;;
21352;SDS011;10834;52.268;6.770;2022-09-09T07:05:27;0.85;;;0.40;;
21352;SDS011;10834;52.268;6.770;2022-09-09T07:08:13;0.60;;;0.60;;
21352;SDS011;10834;52.268;6.770;2022-09-09T07:11:03;1.15;;;0.60;;
21352;SDS011;10834;52.268;6.770;2022-09-09T07:13:50;0.80;;;0.30;;
21352;SDS011;10834;52.268;6.770;2022-09-09T07:16:37;0.70;;;0.35;;
21352;SDS011;10834;52.268;6.770;2022-09-09T07:19:23;1.38;;;0.60;;
21352;SDS011;10834;52.268;6.770;2022-09-09T07:22:09;0.30;;;0.30;;
21352;SDS011;10834;52.268;6.770;2022-09-09T07:24:56;0.40;;;0.35;;
21352;SDS011;10834;52.268;6.770;2022-09-09T07:27:42;1.08;;;0.47;;
21352;SDS011;10834;52.268;6.770;2022-09-09T07:30:28;0.73;;;0.55;;
21352;SDS011;10834;52.268;6.770;2022-09-09T07:33:14;2.95;;;0.50;;
21352;SDS011;10834;52.268;6.770;2022-09-09T07:38:50;0.85;;;0.47;;
21352;SDS011;10834;52.268;6.770;2022-09-09T07:41:42;0.95;;;0.50;;
21352;SDS011;10834;52.268;6.770;2022-09-09T07:44:29;0.95;;;0.50;;
21352;SDS011;10834;52.268;6.770;2022-09-09T07:47:17;1.30;;;0.52;;
21352;SDS011;10834;52.268;6.770;2022-09-09T07:50:03;0.45;;;0.40;;
21352;SDS011;10834;52.268;6.770;2022-09-09T07:52:52;1.40;;;0.50;;
21352;SDS011;10834;52.268;6.770;2022-09-09T07:55:38;2.08;;;0.60;;
21352;SDS011;10834;52.268;6.770;2022-09-09T07:58:25;1.92;;;0.80;;
21352;SDS011;10834;52.268;6.770;2022-09-09T08:01:13;1.60;;;0.80;;
21352;SDS011;10834;52.268;6.770;2022-09-09T08:04:04;1.02;;;0.65;;
21352;SDS011;10834;52.268;6.770;2022-09-09T08:06:53;1.20;;;0.75;;
21352;SDS011;10834;52.268;6.770;2022-09-09T08:09:44;0.93;;;0.57;;
21352;SDS011;10834;52.268;6.770;2022-09-09T08:12:30;1.95;;;0.60;;
21352;SDS011;10834;52.268;6.770;2022-09-09T08:15:17;0.93;;;0.60;;
21352;SDS011;10834;52.268;6.770;2022-09-09T08:18:03;1.52;;;0.82;;
21352;SDS011;10834;52.268;6.770;2022-09-09T08:20:50;1.80;;;0.88;;
21352;SDS011;10834;52.268;6.770;2022-09-09T08:23:36;1.77;;;0.70;;
21352;SDS011;10834;52.268;6.770;2022-09-09T08:26:29;3.40;;;0.70;;
21352;SDS011;10834;52.268;6.770;2022-09-09T08:29:16;1.38;;;0.85;;
21352;SDS011;10834;52.268;6.770;2022-09-09T08:32:03;1.48;;;0.95;;
21352;SDS011;10834;52.268;6.770;2022-09-09T08:34:49;2.92;;;0.82;;
21352;SDS011;10834;52.268;6.770;2022-09-09T08:37:36;3.55;;;0.88;;
21352;SDS011;10834;52.268;6.770;2022-09-09T08:40:24;1.83;;;1.00;;
21352;SDS011;10834;52.268;6.770;2022-09-09T08:43:15;4.15;;;1.35;;
21352;SDS011;10834;52.268;6.770;2022-09-09T08:46:14;3.40;;;0.73;;
21352;SDS011;10834;52.268;6.770;2022-09-09T08:52:22;1.27;;;0.90;;
21352;SDS011;10834;52.268;6.770;2022-09-09T08:55:29;1.70;;;0.88;;
21352;SDS011;10834;52.268;6.770;2022-09-09T08:58:29;3.88;;;1.65;;
21352;SDS011;10834;52.268;6.770;2022-09-09T09:11:00;2.50;;;1.20;;
21352;SDS011;10834;52.268;6.770;2022-09-09T09:14:03;3.28;;;1.27;;
21352;SDS011;10834;52.268;6.770;2022-09-09T09:19:50;2.08;;;1.00;;
21352;SDS011;10834;52.268;6.770;2022-09-09T09:22:43;5.00;;;1.35;;
21352;SDS011;10834;52.268;6.770;2022-09-09T09:25:35;3.08;;;1.20;;
21352;SDS011;10834;52.268;6.770;2022-09-09T09:28:26;4.20;;;1.85;;
21352;SDS011;10834;52.268;6.770;2022-09-09T09:31:15;4.68;;;1.60;;
21352;SDS011;10834;52.268;6.770;2022-09-09T09:34:07;4.28;;;1.17;;
21352;SDS011;10834;52.268;6.770;2022-09-09T09:36:54;3.78;;;1.30;;
21352;SDS011;10834;52.268;6.770;2022-09-09T09:39:42;1.50;;;0.80;;
21352;SDS011;10834;52.268;6.770;2022-09-09T09:42:28;2.40;;;0.88;;
21352;SDS011;10834;52.268;6.770;2022-09-09T09:48:19;3.55;;;1.52;;
21352;SDS011;10834;52.268;6.770;2022-09-09T09:51:07;3.40;;;1.48;;
21352;SDS011;10834;52.268;6.770;2022-09-09T09:54:03;5.13;;;1.80;;
21352;SDS011;10834;52.268;6.770;2022-09-09T09:57:11;2.85;;;1.73;;
21352;SDS011;10834;52.268;6.770;2022-09-09T10:03:24;2.63;;;1.15;;
21352;SDS011;10834;52.268;6.770;2022-09-09T10:06:12;1.20;;;1.00;;
21352;SDS011;10834;52.268;6.770;2022-09-09T10:08:58;2.45;;;1.15;;
21352;SDS011;10834;52.268;6.770;2022-09-09T10:14:38;1.50;;;0.82;;
21352;SDS011;10834;52.268;6.770;2022-09-09T10:17:33;2.33;;;0.90;;
21352;SDS011;10834;52.268;6.770;2022-09-09T10:27:05;2.60;;;0.90;;
21352;SDS011;10834;52.268;6.770;2022-09-09T10:36:37;2.55;;;0.93;;
21352;SDS011;10834;52.268;6.770;2022-09-09T10:39:35;3.72;;;0.70;;
21352;SDS011;10834;52.268;6.770;2022-09-09T10:42:23;2.03;;;1.13;;
21352;SDS011;10834;52.268;6.770;2022-09-09T10:45:20;3.72;;;1.23;;
21352;SDS011;10834;52.268;6.770;2022-09-09T10:51:40;2.50;;;0.90;;
21352;SDS011;10834;52.268;6.770;2022-09-09T10:54:39;1.77;;;0.80;;
21352;SDS011;10834;52.268;6.770;2022-09-09T10:57:36;3.13;;;0.98;;
21352;SDS011;10834;52.268;6.770;2022-09-09T11:00:55;2.67;;;0.90;;
21352;SDS011;10834;52.268;6.770;2022-09-09T11:03:43;2.60;;;1.02;;
21352;SDS011;10834;52.268;6.770;2022-09-09T11:06:37;5.03;;;1.10;;
21352;SDS011;10834;52.268;6.770;2022-09-09T11:09:28;2.70;;;0.98;;
21352;SDS011;10834;52.268;6.770;2022-09-09T11:12:21;1.02;;;0.60;;
21352;SDS011;10834;52.268;6.770;2022-09-09T11:15:20;1.88;;;1.05;;
21352;SDS011;10834;52.268;6.770;2022-09-09T11:18:17;4.35;;;1.83;;
21352;SDS011;10834;52.268;6.770;2022-09-09T11:21:08;3.97;;;0.90;;
21352;SDS011;10834;52.268;6.770;2022-09-09T11:24:18;3.75;;;0.73;;
21352;SDS011;10834;52.268;6.770;2022-09-09T11:33:06;2.42;;;1.10;;
21352;SDS011;10834;52.268;6.770;2022-09-09T11:42:17;4.13;;;1.65;;
21352;SDS011;10834;52.268;6.770;2022-09-09T11:45:09;1.83;;;0.80;;
21352;SDS011;10834;52.268;6.770;2022-09-09T11:48:02;3.55;;;1.05;;
21352;SDS011;10834;52.268;6.770;2022-09-09T11:57:34;1.38;;;0.80;;
21352;SDS011;10834;52.268;6.770;2022-09-09T12:03:39;4.32;;;1.25;;
21352;SDS011;10834;52.268;6.770;2022-09-09T12:06:32;2.55;;;0.93;;
21352;SDS011;10834;52.268;6.770;2022-09-09T12:09:28;2.88;;;0.98;;
21352;SDS011;10834;52.268;6.770;2022-09-09T12:12:36;2.83;;;0.95;;
21352;SDS011;10834;52.268;6.770;2022-09-09T12:15:27;3.25;;;0.95;;
21352;SDS011;10834;52.268;6.770;2022-09-09T12:18:15;2.92;;;0.82;;
21352;SDS011;10834;52.268;6.770;2022-09-09T12:24:08;3.08;;;1.20;;
21352;SDS011;10834;52.268;6.770;2022-09-09T12:27:12;2.72;;;0.70;;
21352;SDS011;10834;52.268;6.770;2022-09-09T12:30:14;2.47;;;1.00;;
21352;SDS011;10834;52.268;6.770;2022-09-09T12:33:02;2.40;;;0.80;;
21352;SDS011;10834;52.268;6.770;2022-09-09T12:35:56;1.52;;;0.77;;
21352;SDS011;10834;52.268;6.770;2022-09-09T12:38:45;2.15;;;0.80;;
21352;SDS011;10834;52.268;6.770;2022-09-09T12:41:31;2.80;;;0.88;;
21352;SDS011;10834;52.268;6.770;2022-09-09T12:44:17;1.98;;;0.80;;
21352;SDS011;10834;52.268;6.770;2022-09-09T12:47:03;2.30;;;0.80;;
21352;SDS011;10834;52.268;6.770;2022-09-09T12:49:49;1.60;;;0.73;;
21352;SDS011;10834;52.268;6.770;2022-09-09T12:52:36;1.55;;;0.73;;
21352;SDS011;10834;52.268;6.770;2022-09-09T12:55:25;1.67;;;0.75;;
21352;SDS011;10834;52.268;6.770;2022-09-09T12:58:16;1.75;;;0.73;;
21352;SDS011;10834;52.268;6.770;2022-09-09T13:01:04;3.85;;;0.88;;
21352;SDS011;10834;52.268;6.770;2022-09-09T13:03:51;1.52;;;1.00;;
21352;SDS011;10834;52.268;6.770;2022-09-09T13:06:38;0.70;;;0.70;;
21352;SDS011;10834;52.268;6.770;2022-09-09T13:09:24;2.35;;;1.20;;
21352;SDS011;10834;52.268;6.770;2022-09-09T13:12:14;0.80;;;0.60;;
21352;SDS011;10834;52.268;6.770;2022-09-09T13:15:03;1.75;;;0.60;;
21352;SDS011;10834;52.268;6.770;2022-09-09T13:17:53;1.52;;;0.60;;
21352;SDS011;10834;52.268;6.770;2022-09-09T13:20:45;1.25;;;0.50;;
21352;SDS011;10834;52.268;6.770;2022-09-09T13:23:34;2.13;;;0.60;;
21352;SDS011;10834;52.268;6.770;2022-09-09T13:26:25;0.98;;;0.57;;
21352;SDS011;10834;52.268;6.770;2022-09-09T13:29:18;1.77;;;1.15;;
21352;SDS011;10834;52.268;6.770;2022-09-09T13:32:05;1.63;;;0.55;;
21352;SDS011;10834;52.268;6.770;2022-09-09T13:34:59;2.42;;;0.50;;
21352;SDS011;10834;52.268;6.770;2022-09-09T13:37:49;0.80;;;0.80;;
21352;SDS011;10834;52.268;6.770;2022-09-09T13:40:35;1.20;;;0.40;;
21352;SDS011;10834;52.268;6.770;2022-09-09T13:43:24;1.15;;;0.90;;
21352;SDS011;10834;52.268;6.770;2022-09-09T13:49:46;1.02;;;0.60;;
21352;SDS011;10834;52.268;6.770;2022-09-09T13:52:32;0.90;;;0.60;;
21352;SDS011;10834;52.268;6.770;2022-09-09T13:55:19;2.10;;;0.70;;
21352;SDS011;10834;52.268;6.770;2022-09-09T13:58:14;0.55;;;0.50;;
21352;SDS011;10834;52.268;6.770;2022-09-09T14:01:03;1.02;;;0.88;;
21352;SDS011;10834;52.268;6.770;2022-09-09T14:03:49;2.90;;;0.80;;
21352;SDS011;10834;52.268;6.770;2022-09-09T14:06:36;1.75;;;0.70;;
21352;SDS011;10834;52.268;6.770;2022-09-09T14:09:23;1.65;;;0.57;;
21352;SDS011;10834;52.268;6.770;2022-09-09T14:12:10;1.20;;;0.63;;
21352;SDS011;10834;52.268;6.770;2022-09-09T14:14:57;1.75;;;0.85;;
21352;SDS011;10834;52.268;6.770;2022-09-09T14:17:45;1.85;;;0.47;;
21352;SDS011;10834;52.268;6.770;2022-09-09T14:20:31;1.13;;;0.65;;
21352;SDS011;10834;52.268;6.770;2022-09-09T14:23:17;2.42;;;0.80;;
21352;SDS011;10834;52.268;6.770;2022-09-09T14:26:04;2.33;;;0.80;;
21352;SDS011;10834;52.268;6.770;2022-09-09T14:28:51;1.40;;;0.85;;
21352;SDS011;10834;52.268;6.770;2022-09-09T14:31:37;1.05;;;0.60;;
21352;SDS011;10834;52.268;6.770;2022-09-09T14:34:23;1.27;;;0.60;;
21352;SDS011;10834;52.268;6.770;2022-09-09T14:37:09;3.83;;;0.70;;
21352;SDS011;10834;52.268;6.770;2022-09-09T14:39:55;1.00;;;0.63;;
21352;SDS011;10834;52.268;6.770;2022-09-09T14:42:41;0.70;;;0.57;;
21352;SDS011;10834;52.268;6.770;2022-09-09T14:45:27;0.75;;;0.75;;
21352;SDS011;10834;52.268;6.770;2022-09-09T14:48:14;2.15;;;0.80;;
21352;SDS011;10834;52.268;6.770;2022-09-09T14:53:54;2.60;;;0.80;;
21352;SDS011;10834;52.268;6.770;2022-09-09T14:56:41;2.53;;;1.08;;
21352;SDS011;10834;52.268;6.770;2022-09-09T14:59:28;2.03;;;1.10;;
21352;SDS011;10834;52.268;6.770;2022-09-09T15:02:14;1.50;;;0.88;;
21352;SDS011;10834;52.268;6.770;2022-09-09T15:05:00;1.35;;;0.77;;
21352;SDS011;10834;52.268;6.770;2022-09-09T15:07:46;1.75;;;0.70;;
21352;SDS011;10834;52.268;6.770;2022-09-09T15:10:33;3.00;;;1.05;;
21352;SDS011;10834;52.268;6.770;2022-09-09T15:13:19;2.50;;;0.90;;
21352;SDS011;10834;52.268;6.770;2022-09-09T15:16:10;1.00;;;0.60;;
21352;SDS011;10834;52.268;6.770;2022-09-09T15:19:00;3.50;;;0.98;;
21352;SDS011;10834;52.268;6.770;2022-09-09T15:21:47;3.03;;;1.10;;
21352;SDS011;10834;52.268;6.770;2022-09-09T15:24:33;2.35;;;0.82;;
21352;SDS011;10834;52.268;6.770;2022-09-09T15:27:20;2.65;;;1.10;;
21352;SDS011;10834;52.268;6.770;2022-09-09T15:30:06;3.35;;;1.38;;
21352;SDS011;10834;52.268;6.770;2022-09-09T15:32:53;2.40;;;0.90;;
21352;SDS011;10834;52.268;6.770;2022-09-09T15:35:40;2.33;;;1.10;;
21352;SDS011;10834;52.268;6.770;2022-09-09T15:38:26;1.73;;;1.13;;
21352;SDS011;10834;52.268;6.770;2022-09-09T15:41:12;1.83;;;1.08;;
21352;SDS011;10834;52.268;6.770;2022-09-09T15:43:59;2.33;;;1.23;;
21352;SDS011;10834;52.268;6.770;2022-09-09T15:46:48;2.53;;;0.98;;
21352;SDS011;10834;52.268;6.770;2022-09-09T15:49:35;2.80;;;1.00;;
21352;SDS011;10834;52.268;6.770;2022-09-09T15:52:21;3.50;;;1.08;;
21352;SDS011;10834;52.268;6.770;2022-09-09T15:55:07;1.35;;;0.73;;
21352;SDS011;10834;52.268;6.770;2022-09-09T15:57:53;1.10;;;1.00;;
21352;SDS011;10834;52.268;6.770;2022-09-09T16:00:40;2.22;;;1.20;;
21352;SDS011;10834;52.268;6.770;2022-09-09T16:03:26;2.03;;;1.00;;
21352;SDS011;10834;52.268;6.770;2022-09-09T16:06:16;1.75;;;0.90;;
21352;SDS011;10834;52.268;6.770;2022-09-09T16:09:04;2.35;;;1.00;;
21352;SDS011;10834;52.268;6.770;2022-09-09T16:11:51;0.85;;;0.73;;
21352;SDS011;10834;52.268;6.770;2022-09-09T16:14:39;1.77;;;0.73;;
21352;SDS011;10834;52.268;6.770;2022-09-09T16:17:26;1.10;;;0.93;;
21352;SDS011;10834;52.268;6.770;2022-09-09T16:20:13;2.05;;;1.00;;
21352;SDS011;10834;52.268;6.770;2022-09-09T16:22:59;1.52;;;0.73;;
21352;SDS011;10834;52.268;6.770;2022-09-09T16:25:55;0.63;;;0.63;;
21352;SDS011;10834;52.268;6.770;2022-09-09T16:28:41;1.35;;;0.80;;
21352;SDS011;10834;52.268;6.770;2022-09-09T16:31:29;3.92;;;1.00;;
21352;SDS011;10834;52.268;6.770;2022-09-09T16:34:17;1.40;;;1.08;;
21352;SDS011;10834;52.268;6.770;2022-09-09T16:37:04;1.35;;;0.85;;
21352;SDS011;10834;52.268;6.770;2022-09-09T16:39:50;0.80;;;0.80;;
21352;SDS011;10834;52.268;6.770;2022-09-09T16:42:36;2.75;;;0.80;;
21352;SDS011;10834;52.268;6.770;2022-09-09T16:45:22;0.85;;;0.80;;
21352;SDS011;10834;52.268;6.770;2022-09-09T16:48:08;0.73;;;0.60;;
21352;SDS011;10834;52.268;6.770;2022-09-09T16:51:00;0.82;;;0.63;;
21352;SDS011;10834;52.268;6.770;2022-09-09T16:53:47;1.58;;;0.80;;
21352;SDS011;10834;52.268;6.770;2022-09-09T16:56:34;0.70;;;0.70;;
21352;SDS011;10834;52.268;6.770;2022-09-09T16:59:26;2.17;;;1.02;;
21352;SDS011;10834;52.268;6.770;2022-09-09T17:02:13;1.02;;;0.70;;
21352;SDS011;10834;52.268;6.770;2022-09-09T17:04:59;0.90;;;0.60;;
21352;SDS011;10834;52.268;6.770;2022-09-09T17:07:45;2.05;;;0.70;;
21352;SDS011;10834;52.268;6.770;2022-09-09T17:10:31;1.48;;;0.90;;
21352;SDS011;10834;52.268;6.770;2022-09-09T17:13:17;1.92;;;1.05;;
21352;SDS011;10834;52.268;6.770;2022-09-09T17:16:06;0.80;;;0.80;;
21352;SDS011;10834;52.268;6.770;2022-09-09T17:18:53;1.35;;;0.95;;
21352;SDS011;10834;52.268;6.770;2022-09-09T17:21:40;1.50;;;0.98;;
21352;SDS011;10834;52.268;6.770;2022-09-09T17:24:26;1.75;;;0.70;;
21352;SDS011;10834;52.268;6.770;2022-09-09T17:27:14;0.70;;;0.70;;
21352;SDS011;10834;52.268;6.770;2022-09-09T17:30:00;1.23;;;0.77;;
21352;SDS011;10834;52.268;6.770;2022-09-09T17:32:46;1.42;;;0.90;;
21352;SDS011;10834;52.268;6.770;2022-09-09T17:35:32;1.38;;;1.00;;
21352;SDS011;10834;52.268;6.770;2022-09-09T17:38:18;1.85;;;0.85;;
21352;SDS011;10834;52.268;6.770;2022-09-09T17:41:09;1.35;;;0.70;;
21352;SDS011;10834;52.268;6.770;2022-09-09T17:43:57;1.17;;;1.00;;
21352;SDS011;10834;52.268;6.770;2022-09-09T17:46:44;1.33;;;0.60;;
21352;SDS011;10834;52.268;6.770;2022-09-09T17:49:31;1.60;;;0.63;;
21352;SDS011;10834;52.268;6.770;2022-09-09T17:52:17;0.95;;;0.90;;
21352;SDS011;10834;52.268;6.770;2022-09-09T17:55:03;0.60;;;0.60;;
21352;SDS011;10834;52.268;6.770;2022-09-09T17:57:50;1.00;;;0.65;;
21352;SDS011;10834;52.268;6.770;2022-09-09T18:00:36;0.90;;;0.85;;
21352;SDS011;10834;52.268;6.770;2022-09-09T18:03:22;0.63;;;0.60;;
21352;SDS011;10834;52.268;6.770;2022-09-09T18:06:09;0.90;;;0.70;;
21352;SDS011;10834;52.268;6.770;2022-09-09T18:09:01;1.67;;;0.70;;
21352;SDS011;10834;52.268;6.770;2022-09-09T18:11:53;1.45;;;0.50;;
21352;SDS011;10834;52.268;6.770;2022-09-09T18:14:41;1.15;;;0.90;;
21352;SDS011;10834;52.268;6.770;2022-09-09T18:17:26;0.50;;;0.50;;
21352;SDS011;10834;52.268;6.770;2022-09-09T18:20:14;0.60;;;0.57;;
21352;SDS011;10834;52.268;6.770;2022-09-09T18:23:01;0.98;;;0.80;;
21352;SDS011;10834;52.268;6.770;2022-09-09T18:25:47;0.70;;;0.70;;
21352;SDS011;10834;52.268;6.770;2022-09-09T18:28:33;3.05;;;0.70;;
21352;SDS011;10834;52.268;6.770;2022-09-09T18:31:20;0.75;;;0.52;;
21352;SDS011;10834;52.268;6.770;2022-09-09T18:34:11;1.65;;;0.70;;
21352;SDS011;10834;52.268;6.770;2022-09-09T18:36:59;0.60;;;0.60;;
21352;SDS011;10834;52.268;6.770;2022-09-09T18:39:44;0.60;;;0.60;;
21352;SDS011;10834;52.268;6.770;2022-09-09T18:42:32;2.15;;;0.60;;
21352;SDS011;10834;52.268;6.770;2022-09-09T18:45:18;1.67;;;0.50;;
21352;SDS011;10834;52.268;6.770;2022-09-09T18:48:05;1.90;;;0.93;;
21352;SDS011;10834;52.268;6.770;2022-09-09T18:50:51;0.70;;;0.55;;
21352;SDS011;10834;52.268;6.770;2022-09-09T18:53:37;1.05;;;0.60;;